createdAt,value
2018-04-24T00:00:54.699Z,959.49
2018-04-24T00:01:54.720Z,959.45
2018-04-24T00:02:54.722Z,959.52
2018-04-24T00:03:54.732Z,959.52
2018-04-24T00:04:54.743Z,959.52
2018-04-24T00:05:54.753Z,959.52
2018-04-24T00:06:54.764Z,959.53
2018-04-24T00:07:54.786Z,959.56
2018-04-24T00:08:54.785Z,959.57
2018-04-24T00:09:54.809Z,959.52
2018-04-24T00:10:54.812Z,959.54
2018-04-24T00:11:54.825Z,959.56
2018-04-24T00:12:54.837Z,959.56
2018-04-24T00:13:54.841Z,959.60
2018-04-24T00:14:54.853Z,959.59
2018-04-24T00:15:54.866Z,959.60
2018-04-24T00:16:54.874Z,959.58
2018-04-24T00:17:54.897Z,959.57
2018-04-24T00:18:54.900Z,959.62
2018-04-24T00:19:54.910Z,959.57
2018-04-24T00:20:54.923Z,959.56
2018-04-24T00:21:54.931Z,959.59
2018-04-24T00:22:54.941Z,959.58
2018-04-24T00:23:54.957Z,959.59
2018-04-24T00:24:54.963Z,959.57
2018-04-24T00:25:54.985Z,959.64
2018-04-24T00:26:54.983Z,959.69
2018-04-24T00:27:55.000Z,959.66
2018-04-24T00:28:55.030Z,959.71
2018-04-24T00:29:55.022Z,959.68
2018-04-24T00:30:55.032Z,959.70
2018-04-24T00:31:55.047Z,959.67
2018-04-24T00:32:55.050Z,959.64
2018-04-24T00:33:55.064Z,959.66
2018-04-24T00:34:55.074Z,959.65
2018-04-24T00:35:55.089Z,959.68
2018-04-24T00:36:55.097Z,959.70
2018-04-24T00:37:55.106Z,959.67
2018-04-24T00:38:55.125Z,959.69
2018-04-24T00:39:55.129Z,959.69
2018-04-24T00:40:55.145Z,959.69
2018-04-24T00:41:55.149Z,959.69
2018-04-24T00:42:55.163Z,959.67
2018-04-24T00:43:55.175Z,959.66
2018-04-24T00:44:55.186Z,959.67
2018-04-24T00:45:55.217Z,959.67
2018-04-24T00:46:55.207Z,959.67
2018-04-24T00:47:55.218Z,959.64
2018-04-24T00:48:55.233Z,959.69
2018-04-24T00:49:55.238Z,959.70
2018-04-24T00:50:55.257Z,959.70
2018-04-24T00:51:55.265Z,959.68
2018-04-24T00:52:55.272Z,959.70
2018-04-24T00:53:55.286Z,959.66
2018-04-24T00:54:55.300Z,959.68
2018-04-24T00:55:55.304Z,959.67
2018-04-24T00:56:55.323Z,959.69
2018-04-24T00:57:55.334Z,959.70
2018-04-24T00:58:55.339Z,959.69
2018-04-24T00:59:55.356Z,959.71
2018-04-24T01:00:55.361Z,959.67
2018-04-24T01:01:55.372Z,959.70
2018-04-24T01:02:55.392Z,959.69
2018-04-24T01:03:55.405Z,959.69
2018-04-24T01:04:55.404Z,959.68
2018-04-24T01:05:55.418Z,959.66
2018-04-24T01:06:55.425Z,959.68
2018-04-24T01:07:55.438Z,959.66
2018-04-24T01:08:55.447Z,959.70
2018-04-24T01:09:55.468Z,959.67
2018-04-24T01:10:55.471Z,959.70
2018-04-24T01:11:55.484Z,959.67
2018-04-24T01:12:55.497Z,959.69
2018-04-24T01:13:55.507Z,959.73
2018-04-24T01:14:55.518Z,959.72
2018-04-24T01:15:55.529Z,959.73
2018-04-24T01:16:55.549Z,959.73
2018-04-24T01:17:55.547Z,959.76
2018-04-24T01:18:55.563Z,959.75
2018-04-24T01:19:55.571Z,959.73
2018-04-24T01:20:55.583Z,959.71
2018-04-24T01:21:55.593Z,959.74
2018-04-24T01:22:55.621Z,959.71
2018-04-24T01:23:55.617Z,959.70
2018-04-24T01:24:55.626Z,959.73
2018-04-24T01:25:55.636Z,959.70
2018-04-24T01:26:55.652Z,959.70
2018-04-24T01:27:55.658Z,959.75
2018-04-24T01:28:55.671Z,959.73
2018-04-24T01:29:55.701Z,959.69
2018-04-24T01:30:55.695Z,959.71
2018-04-24T01:31:55.721Z,959.69
2018-04-24T01:32:55.718Z,959.69
2018-04-24T01:33:55.730Z,959.71
2018-04-24T01:34:55.739Z,959.68
2018-04-24T01:35:55.759Z,959.70
2018-04-24T01:36:55.759Z,959.70
2018-04-24T01:37:55.776Z,959.71
2018-04-24T01:38:55.782Z,959.69
2018-04-24T01:39:55.803Z,959.68
2018-04-24T01:40:55.807Z,959.70
2018-04-24T01:41:55.818Z,959.71
2018-04-24T01:42:55.846Z,959.75
2018-04-24T01:43:55.847Z,959.73
2018-04-24T01:44:55.849Z,959.76
2018-04-24T01:45:55.943Z,959.75
2018-04-24T01:46:55.872Z,959.78
2018-04-24T01:47:55.882Z,959.78
2018-04-24T01:48:55.899Z,959.77
2018-04-24T01:49:55.907Z,959.80
2018-04-24T01:50:55.916Z,959.79
2018-04-24T01:51:55.927Z,959.80
2018-04-24T01:52:55.949Z,959.80
2018-04-24T01:53:55.950Z,959.82
2018-04-24T01:54:55.994Z,959.87
2018-04-24T01:55:55.971Z,959.88
2018-04-24T01:56:55.983Z,959.84
2018-04-24T01:57:55.997Z,959.86
2018-04-24T01:58:56.007Z,959.84
2018-04-24T01:59:56.020Z,959.86
2018-04-24T02:00:56.035Z,959.83
2018-04-24T02:01:56.041Z,959.82
2018-04-24T02:02:56.050Z,959.83
2018-04-24T02:03:56.065Z,959.85
2018-04-24T02:04:56.124Z,959.81
2018-04-24T02:05:56.081Z,959.84
2018-04-24T02:06:56.105Z,959.80
2018-04-24T02:07:56.109Z,959.82
2018-04-24T02:08:56.148Z,959.81
2018-04-24T02:09:56.129Z,959.77
2018-04-24T02:10:56.142Z,959.80
2018-04-24T02:11:56.155Z,959.83
2018-04-24T02:12:56.161Z,959.81
2018-04-24T02:13:56.179Z,959.81
2018-04-24T02:14:56.186Z,959.78
2018-04-24T02:15:56.204Z,959.78
2018-04-24T02:16:56.205Z,959.81
2018-04-24T02:17:56.218Z,959.82
2018-04-24T02:18:56.231Z,959.85
2018-04-24T02:19:56.254Z,959.81
2018-04-24T02:20:56.255Z,959.84
2018-04-24T02:21:56.264Z,959.81
2018-04-24T02:22:56.276Z,959.80
2018-04-24T02:23:56.287Z,959.82
2018-04-24T02:24:56.373Z,959.82
2018-04-24T02:25:56.321Z,959.79
2018-04-24T02:26:56.318Z,959.78
2018-04-24T02:27:56.328Z,959.77
2018-04-24T02:28:56.350Z,959.78
2018-04-24T02:29:56.351Z,959.79
2018-04-24T02:30:56.365Z,959.85
2018-04-24T02:31:56.387Z,959.86
2018-04-24T02:32:56.385Z,959.80
2018-04-24T02:33:56.398Z,959.83
2018-04-24T02:34:56.411Z,959.75
2018-04-24T02:35:56.425Z,959.81
2018-04-24T02:36:56.434Z,959.82
2018-04-24T02:37:56.450Z,959.80
2018-04-24T02:38:56.454Z,959.82
2018-04-24T02:39:56.466Z,959.85
2018-04-24T02:40:56.478Z,959.81
2018-04-24T02:41:56.485Z,959.83
2018-04-24T02:42:56.496Z,959.83
2018-04-24T02:43:56.513Z,959.82
2018-04-24T02:44:56.518Z,959.85
2018-04-24T02:45:56.532Z,959.84
2018-04-24T02:46:56.549Z,959.89
2018-04-24T02:47:56.553Z,959.87
2018-04-24T02:48:56.563Z,959.89
2018-04-24T02:49:56.575Z,959.85
2018-04-24T02:50:56.608Z,959.86
2018-04-24T02:51:56.604Z,959.86
2018-04-24T02:52:56.608Z,959.85
2018-04-24T02:53:56.618Z,959.87
2018-04-24T02:54:56.629Z,959.88
2018-04-24T02:55:56.645Z,959.86
2018-04-24T02:56:56.652Z,959.83
2018-04-24T02:57:56.676Z,959.86
2018-04-24T02:58:56.683Z,959.92
2018-04-24T02:59:56.686Z,959.90
2018-04-24T03:00:56.698Z,959.94
2018-04-24T03:01:56.703Z,959.93
2018-04-24T03:02:56.721Z,959.93
2018-04-24T03:03:56.733Z,959.89
2018-04-24T03:04:56.744Z,959.88
2018-04-24T03:05:56.752Z,959.92
2018-04-24T03:06:56.767Z,959.91
2018-04-24T03:07:56.775Z,959.93
2018-04-24T03:08:56.781Z,959.93
2018-04-24T03:09:56.811Z,959.92
2018-04-24T03:10:56.808Z,959.89
2018-04-24T03:11:56.922Z,959.89
2018-04-24T03:12:56.830Z,959.90
2018-04-24T03:13:56.839Z,959.87
2018-04-24T03:14:56.848Z,959.86
2018-04-24T03:15:56.888Z,959.86
2018-04-24T03:16:56.872Z,959.86
2018-04-24T03:17:56.887Z,959.81
2018-04-24T03:18:56.891Z,959.81
2018-04-24T03:19:56.912Z,959.80
2018-04-24T03:20:56.915Z,959.82
2018-04-24T03:21:56.935Z,959.79
2018-04-24T03:22:56.945Z,959.80
2018-04-24T03:23:56.953Z,959.83
2018-04-24T03:24:56.963Z,959.79
2018-04-24T03:25:56.971Z,959.77
2018-04-24T03:26:56.981Z,959.78
2018-04-24T03:27:57.002Z,959.74
2018-04-24T03:28:57.005Z,959.77
2018-04-24T03:29:57.017Z,959.73
2018-04-24T03:30:57.027Z,959.74
2018-04-24T03:31:57.047Z,959.73
2018-04-24T03:32:57.049Z,959.74
2018-04-24T03:33:57.062Z,959.76
2018-04-24T03:34:57.070Z,959.71
2018-04-24T03:35:57.086Z,959.72
2018-04-24T03:36:57.091Z,959.72
2018-04-24T03:37:57.104Z,959.73
2018-04-24T03:38:57.116Z,959.76
2018-04-24T03:39:57.137Z,959.72
2018-04-24T03:40:57.147Z,959.74
2018-04-24T03:41:57.154Z,959.74
2018-04-24T03:42:57.158Z,959.74
2018-04-24T03:43:57.171Z,959.74
2018-04-24T03:44:57.178Z,959.78
2018-04-24T03:45:57.220Z,959.77
2018-04-24T03:46:57.203Z,959.76
2018-04-24T03:47:57.219Z,959.78
2018-04-24T03:48:57.221Z,959.78
2018-04-24T03:49:57.232Z,959.83
2018-04-24T03:50:57.248Z,959.83
2018-04-24T03:51:57.256Z,959.84
2018-04-24T03:52:57.271Z,959.85
2018-04-24T03:53:57.288Z,959.83
2018-04-24T03:54:57.291Z,959.83
2018-04-24T03:55:57.301Z,959.85
2018-04-24T03:56:57.309Z,959.85
2018-04-24T03:57:57.323Z,959.83
2018-04-24T03:58:57.331Z,959.84
2018-04-24T03:59:57.346Z,959.83
2018-04-24T04:00:57.355Z,959.80
2018-04-24T04:01:57.364Z,959.80
2018-04-24T04:02:57.373Z,959.78
2018-04-24T04:03:57.391Z,959.82
2018-04-24T04:04:57.403Z,959.83
2018-04-24T04:05:57.411Z,959.81
2018-04-24T04:06:57.428Z,959.84
2018-04-24T04:07:57.432Z,959.81
2018-04-24T04:08:57.443Z,959.84
2018-04-24T04:09:57.453Z,959.81
2018-04-24T04:10:57.464Z,959.83
2018-04-24T04:11:57.472Z,959.80
2018-04-24T04:12:57.490Z,959.85
2018-04-24T04:13:57.498Z,959.83
2018-04-24T04:14:57.507Z,959.86
2018-04-24T04:15:57.601Z,959.84
2018-04-24T04:16:57.526Z,959.83
2018-04-24T04:17:57.545Z,959.83
2018-04-24T04:18:57.548Z,959.83
2018-04-24T04:19:57.560Z,959.77
2018-04-24T04:20:57.584Z,959.80
2018-04-24T04:21:57.579Z,959.78
2018-04-24T04:22:57.591Z,959.78
2018-04-24T04:23:57.604Z,959.83
2018-04-24T04:24:57.615Z,959.81
2018-04-24T04:25:57.626Z,959.88
2018-04-24T04:26:57.671Z,959.90
2018-04-24T04:27:57.648Z,959.94
2018-04-24T04:28:57.659Z,959.94
2018-04-24T04:29:57.674Z,959.93
2018-04-24T04:30:57.677Z,959.89
2018-04-24T04:31:57.695Z,959.88
2018-04-24T04:32:57.751Z,959.86
2018-04-24T04:33:57.710Z,959.85
2018-04-24T04:34:57.727Z,959.84
2018-04-24T04:35:57.740Z,959.86
2018-04-24T04:36:57.748Z,959.87
2018-04-24T04:37:57.757Z,959.88
2018-04-24T04:38:57.766Z,959.90
2018-04-24T04:39:57.777Z,959.92
2018-04-24T04:40:57.798Z,959.94
2018-04-24T04:41:57.804Z,959.93
2018-04-24T04:42:57.812Z,959.92
2018-04-24T04:43:57.822Z,959.90
2018-04-24T04:44:57.831Z,959.90
2018-04-24T04:45:57.848Z,959.88
2018-04-24T04:46:57.854Z,959.91
2018-04-24T04:47:57.951Z,959.92
2018-04-24T04:48:57.880Z,959.94
2018-04-24T04:49:57.889Z,959.96
2018-04-24T04:50:57.895Z,959.95
2018-04-24T04:51:57.916Z,959.91
2018-04-24T04:52:57.917Z,959.89
2018-04-24T04:53:57.928Z,959.90
2018-04-24T04:54:57.948Z,959.90
2018-04-24T04:55:57.954Z,959.88
2018-04-24T04:56:57.963Z,959.91
2018-04-24T04:57:57.974Z,959.95
2018-04-24T04:58:57.986Z,959.95
2018-04-24T04:59:57.998Z,960.01
2018-04-24T05:00:58.016Z,960.02
2018-04-24T05:01:58.019Z,960.02
2018-04-24T05:02:58.030Z,960.04
2018-04-24T05:03:58.040Z,960.06
2018-04-24T05:04:58.050Z,960.02
2018-04-24T05:05:58.062Z,960.02
2018-04-24T05:06:58.081Z,960.06
2018-04-24T05:07:58.085Z,959.99
2018-04-24T05:08:58.092Z,959.99
2018-04-24T05:09:58.103Z,959.97
2018-04-24T05:10:58.125Z,959.99
2018-04-24T05:11:58.146Z,959.99
2018-04-24T05:12:58.154Z,960.02
2018-04-24T05:13:58.148Z,960.06
2018-04-24T05:14:58.161Z,960.06
2018-04-24T05:15:58.177Z,960.02
2018-04-24T05:16:58.186Z,960.05
2018-04-24T05:17:58.195Z,960.03
2018-04-24T05:18:58.204Z,960.08
2018-04-24T05:19:58.229Z,960.05
2018-04-24T05:20:58.225Z,960.06
2018-04-24T05:21:58.241Z,960.07
2018-04-24T05:22:58.248Z,960.07
2018-04-24T05:23:58.265Z,960.04
2018-04-24T05:24:58.272Z,960.06
2018-04-24T05:25:58.312Z,960.08
2018-04-24T05:26:58.292Z,960.09
2018-04-24T05:27:58.303Z,960.11
2018-04-24T05:28:58.313Z,960.13
2018-04-24T05:29:58.331Z,960.16
2018-04-24T05:30:58.338Z,960.12
2018-04-24T05:31:58.354Z,960.16
2018-04-24T05:32:58.360Z,960.13
2018-04-24T05:33:58.371Z,960.13
2018-04-24T05:34:58.383Z,960.19
2018-04-24T05:35:58.395Z,960.17
2018-04-24T05:36:58.402Z,960.18
2018-04-24T05:37:58.422Z,960.19
2018-04-24T05:38:58.425Z,960.13
2018-04-24T05:39:58.437Z,960.17
2018-04-24T05:40:58.452Z,960.16
2018-04-24T05:41:58.466Z,960.22
2018-04-24T05:42:58.470Z,960.20
2018-04-24T05:43:58.497Z,960.19
2018-04-24T05:44:58.496Z,960.18
2018-04-24T05:45:58.504Z,960.20
2018-04-24T05:46:58.518Z,960.18
2018-04-24T05:47:58.528Z,960.18
2018-04-24T05:48:58.536Z,960.23
2018-04-24T05:49:58.561Z,960.19
2018-04-24T05:50:58.557Z,960.18
2018-04-24T05:51:58.570Z,960.22
2018-04-24T05:52:58.603Z,960.20
2018-04-24T05:53:58.593Z,960.24
2018-04-24T05:54:58.605Z,960.30
2018-04-24T05:55:58.614Z,960.29
2018-04-24T05:56:58.632Z,960.30
2018-04-24T05:57:58.641Z,960.26
2018-04-24T05:58:58.652Z,960.30
2018-04-24T05:59:58.668Z,960.31
2018-04-24T06:00:58.670Z,960.28
2018-04-24T06:01:58.685Z,960.31
2018-04-24T06:02:58.719Z,960.29
2018-04-24T06:03:58.702Z,960.31
2018-04-24T06:04:58.715Z,960.29
2018-04-24T06:05:58.725Z,960.36
2018-04-24T06:06:58.737Z,960.37
2018-04-24T06:07:58.748Z,960.38
2018-04-24T06:08:58.759Z,960.37
2018-04-24T06:09:58.778Z,960.37
2018-04-24T06:10:58.791Z,960.33
2018-04-24T06:11:58.792Z,960.42
2018-04-24T06:12:58.803Z,960.44
2018-04-24T06:13:58.820Z,960.42
2018-04-24T06:14:58.889Z,960.42
2018-04-24T06:15:58.837Z,960.41
2018-04-24T06:16:58.857Z,960.45
2018-04-24T06:17:58.870Z,960.45
2018-04-24T06:18:58.875Z,960.46
2018-04-24T06:19:58.884Z,960.47
2018-04-24T06:20:58.892Z,960.51
2018-04-24T06:21:58.907Z,960.53
2018-04-24T06:22:58.920Z,960.58
2018-04-24T06:23:58.927Z,960.58
2018-04-24T06:24:58.941Z,960.65
2018-04-24T06:25:58.950Z,960.68
2018-04-24T06:26:58.963Z,960.71
2018-04-24T06:27:58.995Z,960.65
2018-04-24T06:28:58.985Z,960.66
2018-04-24T06:29:58.994Z,960.69
2018-04-24T06:30:59.014Z,960.64
2018-04-24T06:31:59.019Z,960.66
2018-04-24T06:32:59.028Z,960.67
2018-04-24T06:33:59.051Z,960.69
2018-04-24T06:34:59.053Z,960.70
2018-04-24T06:35:59.100Z,960.69
2018-04-24T06:36:59.078Z,960.73
2018-04-24T06:37:59.090Z,960.67
2018-04-24T06:38:59.098Z,960.63
2018-04-24T06:39:59.114Z,960.59
2018-04-24T06:40:59.123Z,960.62
2018-04-24T06:41:59.133Z,960.68
2018-04-24T06:42:59.149Z,960.77
2018-04-24T06:43:59.155Z,960.75
2018-04-24T06:44:59.167Z,960.60
2018-04-24T06:45:59.182Z,960.60
2018-04-24T06:46:59.199Z,960.65
2018-04-24T06:47:59.204Z,960.59
2018-04-24T06:48:59.238Z,960.60
2018-04-24T06:49:59.226Z,960.60
2018-04-24T06:50:59.239Z,960.61
2018-04-24T06:51:59.247Z,960.66
2018-04-24T06:52:59.266Z,960.67
2018-04-24T06:53:59.278Z,960.69
2018-04-24T06:54:59.371Z,960.62
2018-04-24T06:55:59.296Z,960.59
2018-04-24T06:56:59.308Z,960.54
2018-04-24T06:57:59.320Z,960.56
2018-04-24T06:58:59.337Z,960.53
2018-04-24T06:59:59.343Z,960.55
2018-04-24T07:00:59.358Z,960.52
2018-04-24T07:01:59.366Z,960.55
2018-04-24T07:02:59.384Z,960.56
2018-04-24T07:03:59.390Z,960.58
2018-04-24T07:04:59.404Z,960.58
2018-04-24T07:05:59.415Z,960.58
2018-04-24T07:06:59.462Z,960.63
2018-04-24T07:07:59.437Z,960.64
2018-04-24T07:08:59.450Z,960.65
2018-04-24T07:09:59.458Z,960.66
2018-04-24T07:10:59.475Z,960.62
2018-04-24T07:11:59.486Z,960.61
2018-04-24T07:12:59.494Z,960.61
2018-04-24T07:13:59.511Z,960.56
2018-04-24T07:14:59.516Z,960.62
2018-04-24T07:15:59.538Z,960.60
2018-04-24T07:16:59.539Z,960.61
2018-04-24T07:17:59.570Z,960.60
2018-04-24T07:18:59.565Z,960.59
2018-04-24T07:19:59.575Z,960.60
2018-04-24T07:20:59.587Z,960.63
2018-04-24T07:21:59.609Z,960.55
2018-04-24T07:22:59.615Z,960.64
2018-04-24T07:23:59.622Z,960.65
2018-04-24T07:24:59.632Z,960.70
2018-04-24T07:25:59.644Z,960.63
2018-04-24T07:26:59.658Z,960.63
2018-04-24T07:27:59.668Z,960.61
2018-04-24T07:28:59.679Z,960.63
2018-04-24T07:29:59.691Z,960.68
2018-04-24T07:30:59.715Z,960.70
2018-04-24T07:31:59.715Z,960.66
2018-04-24T07:32:59.744Z,960.67
2018-04-24T07:33:59.749Z,960.64
2018-04-24T07:34:59.751Z,960.65
2018-04-24T07:35:59.764Z,960.62
2018-04-24T07:36:59.774Z,960.63
2018-04-24T07:37:59.788Z,960.63
2018-04-24T07:38:59.797Z,960.61
2018-04-24T07:39:59.809Z,960.61
2018-04-24T07:40:59.868Z,960.61
2018-04-24T07:41:59.839Z,960.64
2018-04-24T07:42:59.850Z,960.62
2018-04-24T07:43:59.856Z,960.60
2018-04-24T07:44:59.866Z,960.55
2018-04-24T07:45:59.878Z,960.59
2018-04-24T07:46:59.893Z,960.57
2018-04-24T07:47:59.916Z,960.56
2018-04-24T07:48:59.914Z,960.52
2018-04-24T07:49:59.925Z,960.55
2018-04-24T07:50:59.938Z,960.63
2018-04-24T07:51:59.948Z,960.59
2018-04-24T07:52:59.958Z,960.52
2018-04-24T07:53:59.976Z,960.42
2018-04-24T07:54:59.984Z,960.43
2018-04-24T07:56:00.018Z,960.49
2018-04-24T07:57:00.011Z,960.58
2018-04-24T07:58:00.019Z,960.51
2018-04-24T07:59:00.033Z,960.40
2018-04-24T08:00:00.051Z,960.43
2018-04-24T08:01:00.055Z,960.43
2018-04-24T08:02:00.073Z,960.38
2018-04-24T08:03:00.082Z,960.34
2018-04-24T08:04:00.089Z,960.36
2018-04-24T08:05:00.104Z,960.33
2018-04-24T08:06:00.118Z,960.40
2018-04-24T08:07:00.132Z,960.46
2018-04-24T08:08:00.155Z,960.42
2018-04-24T08:09:00.172Z,960.37
2018-04-24T08:10:00.170Z,960.33
2018-04-24T08:11:00.182Z,960.32
2018-04-24T08:12:00.190Z,960.31
2018-04-24T08:13:00.201Z,960.43
2018-04-24T08:14:00.221Z,960.44
2018-04-24T08:15:00.228Z,960.49
2018-04-24T08:16:00.239Z,960.39
2018-04-24T08:17:00.249Z,960.38
2018-04-24T08:18:00.259Z,960.38
2018-04-24T08:19:00.275Z,960.33
2018-04-24T08:20:00.287Z,960.27
2018-04-24T08:21:00.297Z,960.25
2018-04-24T08:22:00.346Z,960.23
2018-04-24T08:23:00.323Z,960.20
2018-04-24T08:24:00.344Z,960.22
2018-04-24T08:25:00.351Z,960.32
2018-04-24T08:26:00.374Z,960.25
2018-04-24T08:27:00.371Z,960.22
2018-04-24T08:28:00.384Z,960.21
2018-04-24T08:29:00.403Z,960.16
2018-04-24T08:30:00.417Z,960.22
2018-04-24T08:31:00.439Z,960.28
2018-04-24T08:32:00.436Z,960.32
2018-04-24T08:33:00.456Z,960.27
2018-04-24T08:34:00.458Z,960.35
2018-04-24T08:35:00.511Z,960.25
2018-04-24T08:36:00.515Z,960.20
2018-04-24T08:37:00.497Z,960.18
2018-04-24T08:38:00.506Z,960.16
2018-04-24T08:39:00.608Z,960.14
2018-04-24T08:40:00.590Z,960.21
2018-04-24T08:41:00.550Z,960.17
2018-04-24T08:42:00.563Z,960.01
2018-04-24T08:43:00.582Z,960.18
2018-04-24T08:44:00.584Z,960.09
2018-04-24T08:45:00.595Z,960.04
2018-04-24T08:46:00.610Z,960.05
2018-04-24T08:47:00.626Z,960.03
2018-04-24T08:48:00.749Z,960.07
2018-04-24T08:49:00.649Z,960.06
2018-04-24T08:50:00.660Z,960.18
2018-04-24T08:51:00.674Z,960.25
2018-04-24T08:52:00.691Z,960.30
2018-04-24T08:53:00.698Z,960.28
2018-04-24T08:54:00.718Z,960.16
2018-04-24T08:55:00.727Z,960.17
2018-04-24T08:56:00.740Z,960.16
2018-04-24T08:57:00.755Z,960.05
2018-04-24T08:58:00.759Z,960.05
2018-04-24T08:59:00.776Z,960.04
2018-04-24T09:00:00.790Z,960.08
2018-04-24T09:01:00.799Z,960.20
2018-04-24T09:02:00.868Z,960.12
2018-04-24T09:03:00.825Z,960.14
2018-04-24T09:04:00.840Z,960.19
2018-04-24T09:05:00.866Z,960.18
2018-04-24T09:06:00.867Z,960.36
2018-04-24T09:07:00.878Z,960.38
2018-04-24T09:08:00.891Z,960.36
2018-04-24T09:09:00.918Z,960.29
2018-04-24T09:10:00.968Z,960.24
2018-04-24T09:11:00.936Z,960.15
2018-04-24T09:12:00.943Z,960.19
2018-04-24T09:13:00.962Z,960.11
2018-04-24T09:14:01.044Z,960.11
2018-04-24T09:15:00.986Z,960.08
2018-04-24T09:16:01.028Z,960.09
2018-04-24T09:17:01.021Z,960.14
2018-04-24T09:18:01.026Z,960.23
2018-04-24T09:19:01.041Z,960.15
2018-04-24T09:20:01.084Z,960.10
2018-04-24T09:21:01.065Z,960.19
2018-04-24T09:22:01.081Z,960.26
2018-04-24T09:23:01.094Z,960.21
2018-04-24T09:24:01.139Z,960.17
2018-04-24T09:25:01.118Z,960.09
2018-04-24T09:26:01.130Z,960.13
2018-04-24T09:27:01.239Z,960.11
2018-04-24T09:28:01.160Z,960.21
2018-04-24T09:29:01.177Z,960.19
2018-04-24T09:30:01.183Z,960.09
2018-04-24T09:31:01.227Z,959.96
2018-04-24T09:32:01.209Z,959.96
2018-04-24T09:33:01.250Z,959.99
2018-04-24T09:34:01.238Z,959.98
2018-04-24T09:35:01.822Z,960.00
2018-04-24T09:36:01.265Z,959.91
2018-04-24T09:37:01.296Z,959.96
2018-04-24T09:38:01.295Z,959.94
2018-04-24T09:39:01.310Z,959.94
2018-04-24T09:40:01.315Z,959.89
2018-04-24T09:41:01.345Z,959.87
2018-04-24T09:42:01.344Z,959.89
2018-04-24T09:43:01.355Z,959.88
2018-04-24T09:44:01.447Z,959.87
2018-04-24T09:45:01.383Z,959.89
2018-04-24T09:46:01.453Z,959.89
2018-04-24T09:47:01.412Z,959.84
2018-04-24T09:48:01.429Z,959.84
2018-04-24T09:49:01.567Z,959.85
2018-04-24T09:50:01.450Z,959.83
2018-04-24T09:51:01.469Z,959.86
2018-04-24T09:52:01.498Z,959.81
2018-04-24T09:53:01.519Z,959.79
2018-04-24T09:54:01.500Z,959.83
2018-04-24T09:55:01.515Z,959.91
2018-04-24T09:56:01.526Z,959.89
2018-04-24T09:57:01.542Z,960.03
2018-04-24T09:58:01.556Z,960.08
2018-04-24T09:59:01.566Z,960.03
2018-04-24T10:00:01.584Z,960.13
2018-04-24T10:01:01.610Z,960.16
2018-04-24T10:02:01.614Z,960.15
2018-04-24T10:03:01.651Z,960.11
2018-04-24T10:04:01.634Z,959.96
2018-04-24T10:05:01.663Z,959.98
2018-04-24T10:06:01.658Z,960.06
2018-04-24T10:07:01.675Z,960.03
2018-04-24T10:08:01.692Z,960.14
2018-04-24T10:09:01.700Z,960.05
2018-04-24T10:10:01.728Z,959.94
2018-04-24T10:11:01.728Z,960.07
2018-04-24T10:12:01.751Z,960.20
2018-04-24T10:13:01.854Z,960.07
2018-04-24T10:14:01.834Z,960.02
2018-04-24T10:15:01.788Z,960.09
2018-04-24T10:16:01.801Z,959.91
2018-04-24T10:17:01.826Z,959.79
2018-04-24T10:18:01.840Z,959.84
2018-04-24T10:19:01.838Z,959.70
2018-04-24T10:20:01.854Z,959.62
2018-04-24T10:21:01.871Z,959.59
2018-04-24T10:22:01.883Z,959.63
2018-04-24T10:23:01.897Z,959.55
2018-04-24T10:24:01.914Z,959.63
2018-04-24T10:25:01.955Z,959.65
2018-04-24T10:26:01.942Z,959.63
2018-04-24T10:27:01.953Z,959.60
2018-04-24T10:28:01.973Z,959.61
2018-04-24T10:29:01.981Z,959.63
2018-04-24T10:30:01.995Z,959.66
2018-04-24T10:31:02.020Z,959.75
2018-04-24T10:32:02.027Z,959.59
2018-04-24T10:33:02.040Z,959.57
2018-04-24T10:34:02.052Z,959.58
2018-04-24T10:35:02.070Z,959.68
2018-04-24T10:36:02.083Z,959.63
2018-04-24T10:37:02.105Z,959.67
2018-04-24T10:38:02.109Z,959.77
2018-04-24T10:39:02.124Z,959.76
2018-04-24T10:40:02.137Z,959.69
2018-04-24T10:41:02.154Z,959.76
2018-04-24T10:42:02.178Z,959.64
2018-04-24T10:43:02.186Z,959.60
2018-04-24T10:44:02.197Z,959.55
2018-04-24T10:45:02.212Z,959.74
2018-04-24T10:46:02.224Z,959.66
2018-04-24T10:47:02.238Z,959.58
2018-04-24T10:48:02.287Z,959.69
2018-04-24T10:49:02.277Z,959.65
2018-04-24T10:50:02.283Z,959.66
2018-04-24T10:51:02.298Z,959.62
2018-04-24T10:52:02.310Z,959.52
2018-04-24T10:53:02.327Z,959.56
2018-04-24T10:54:02.341Z,959.67
2018-04-24T10:55:02.371Z,959.71
2018-04-24T10:56:02.441Z,959.73
2018-04-24T10:57:02.383Z,959.70
2018-04-24T10:58:02.397Z,959.64
2018-04-24T10:59:02.412Z,959.65
2018-04-24T11:00:02.430Z,959.54
2018-04-24T11:01:02.446Z,959.62
2018-04-24T11:02:02.465Z,959.62
2018-04-24T11:03:02.472Z,959.62
2018-04-24T11:04:02.492Z,959.64
2018-04-24T11:05:02.500Z,959.57
2018-04-24T11:06:02.515Z,959.60
2018-04-24T11:07:02.533Z,959.68
2018-04-24T11:08:02.561Z,959.89
2018-04-24T11:09:02.572Z,959.88
2018-04-24T11:10:02.575Z,959.94
2018-04-24T11:11:02.588Z,959.75
2018-04-24T11:12:02.606Z,959.96
2018-04-24T11:13:02.628Z,959.99
2018-04-24T11:14:02.645Z,959.87
2018-04-24T11:15:02.657Z,959.53
2018-04-24T11:16:02.671Z,959.62
2018-04-24T11:17:02.729Z,959.85
2018-04-24T11:18:02.713Z,959.70
2018-04-24T11:19:02.725Z,959.87
2018-04-24T11:20:02.756Z,959.89
2018-04-24T11:21:02.760Z,960.11
2018-04-24T11:22:02.779Z,959.72
2018-04-24T11:23:02.799Z,960.05
2018-04-24T11:24:02.818Z,959.86
2018-04-24T11:25:02.833Z,959.97
2018-04-24T11:26:02.878Z,959.55
2018-04-24T11:27:02.871Z,960.02
2018-04-24T11:28:02.900Z,959.90
2018-04-24T11:29:02.916Z,959.57
2018-04-24T11:30:02.943Z,960.01
2018-04-24T11:31:02.957Z,960.01
2018-04-24T11:32:02.973Z,959.99
2018-04-24T11:33:02.996Z,959.95
2018-04-24T11:34:03.020Z,960.03
2018-04-24T11:35:03.038Z,960.02
2018-04-24T11:36:03.088Z,959.99
2018-04-24T11:37:03.078Z,959.92
2018-04-24T11:38:03.100Z,959.92
2018-04-24T11:39:03.154Z,959.99
2018-04-24T11:40:03.141Z,959.91
2018-04-24T11:41:03.161Z,959.89
2018-04-24T11:42:03.191Z,959.94
2018-04-24T11:43:03.217Z,959.98
2018-04-24T11:44:03.253Z,960.04
2018-04-24T11:45:03.265Z,960.09
2018-04-24T11:46:03.295Z,960.08
2018-04-24T11:47:03.296Z,959.87
2018-04-24T11:48:03.317Z,959.79
2018-04-24T11:49:03.347Z,959.93
2018-04-24T11:50:03.361Z,960.07
2018-04-24T11:51:03.390Z,960.08
2018-04-24T11:52:03.409Z,960.14
2018-04-24T11:53:03.431Z,959.97
2018-04-24T11:54:03.453Z,960.16
2018-04-24T11:55:03.472Z,960.32
2018-04-24T11:56:03.497Z,960.33
2018-04-24T11:57:03.588Z,959.73
2018-04-24T11:58:03.539Z,959.95
2018-04-24T11:59:03.639Z,959.92
2018-04-24T12:00:03.589Z,959.89
2018-04-24T12:01:03.609Z,959.84
2018-04-24T12:02:03.655Z,959.77
2018-04-24T12:03:03.662Z,959.77
2018-04-24T12:04:03.684Z,959.77
2018-04-24T12:05:03.701Z,959.88
2018-04-24T12:06:03.730Z,959.97
2018-04-24T12:07:03.749Z,960.05
2018-04-24T12:08:03.776Z,960.38
2018-04-24T12:09:03.800Z,960.02
2018-04-24T12:10:03.840Z,960.02
2018-04-24T12:11:03.847Z,960.04
2018-04-24T12:12:03.871Z,959.52
2018-04-24T12:13:03.903Z,959.76
2018-04-24T12:14:03.923Z,959.74
2018-04-24T12:15:03.941Z,960.26
2018-04-24T12:16:03.967Z,960.52
2018-04-24T12:17:03.988Z,960.29
2018-04-24T12:18:04.011Z,959.86
2018-04-24T12:19:04.033Z,959.53
2018-04-24T12:20:04.066Z,959.72
2018-04-24T12:21:04.080Z,960.30
2018-04-24T12:22:04.105Z,959.64
2018-04-24T12:23:04.125Z,960.22
2018-04-24T12:24:04.149Z,959.44
2018-04-24T12:25:04.169Z,959.98
2018-04-24T12:26:04.197Z,959.39
2018-04-24T12:27:04.218Z,959.54
2018-04-24T12:28:04.236Z,959.69
2018-04-24T12:29:04.256Z,959.63